sensor_id;sensor_type;location;lat;lon;timestamp;P1;durP1;ratioP1;P2;durP2;ratioP2
42834;SDS011;29335;50.526;30.458;2022-12-01T00:02:10;11.77;;;6.10;;
42834;SDS011;29335;50.526;30.458;2022-12-01T00:04:35;8.75;;;5.80;;
42834;SDS011;29335;50.526;30.458;2022-12-01T00:07:01;8.95;;;5.78;;
42834;SDS011;29335;50.526;30.458;2022-12-01T00:09:26;10.32;;;5.60;;
42834;SDS011;29335;50.526;30.458;2022-12-01T00:12:11;16.40;;;7.22;;
42834;SDS011;29335;50.526;30.458;2022-12-01T00:14:36;9.63;;;5.82;;
42834;SDS011;29335;50.526;30.458;2022-12-01T00:17:02;10.50;;;5.80;;
42834;SDS011;29335;50.526;30.458;2022-12-01T00:19:29;10.32;;;5.95;;
42834;SDS011;29335;50.526;30.458;2022-12-01T00:21:54;9.73;;;5.65;;
42834;SDS011;29335;50.526;30.458;2022-12-01T00:24:20;11.10;;;5.72;;
42834;SDS011;29335;50.526;30.458;2022-12-01T00:26:47;12.15;;;5.90;;
42834;SDS011;29335;50.526;30.458;2022-12-01T00:29:13;10.45;;;6.32;;
42834;SDS011;29335;50.526;30.458;2022-12-01T00:31:39;12.70;;;6.22;;
42834;SDS011;29335;50.526;30.458;2022-12-01T00:34:05;12.02;;;5.28;;
42834;SDS011;29335;50.526;30.458;2022-12-01T00:36:31;9.93;;;5.05;;
42834;SDS011;29335;50.526;30.458;2022-12-01T00:38:57;8.70;;;5.40;;
42834;SDS011;29335;50.526;30.458;2022-12-01T00:41:23;10.75;;;6.00;;
42834;SDS011;29335;50.526;30.458;2022-12-01T00:43:49;9.48;;;4.95;;
42834;SDS011;29335;50.526;30.458;2022-12-01T00:46:15;9.90;;;5.20;;
42834;SDS011;29335;50.526;30.458;2022-12-01T00:48:41;10.75;;;5.35;;
42834;SDS011;29335;50.526;30.458;2022-12-01T00:51:07;12.25;;;5.22;;
42834;SDS011;29335;50.526;30.458;2022-12-01T00:53:33;11.23;;;5.50;;
42834;SDS011;29335;50.526;30.458;2022-12-01T00:55:58;10.07;;;5.22;;
42834;SDS011;29335;50.526;30.458;2022-12-01T00:58:24;11.88;;;5.35;;
42834;SDS011;29335;50.526;30.458;2022-12-01T01:00:57;10.10;;;4.97;;
42834;SDS011;29335;50.526;30.458;2022-12-01T01:03:26;13.18;;;5.90;;
42834;SDS011;29335;50.526;30.458;2022-12-01T01:05:53;10.73;;;5.65;;
42834;SDS011;29335;50.526;30.458;2022-12-01T01:08:18;8.63;;;5.78;;
42834;SDS011;29335;50.526;30.458;2022-12-01T01:10:45;9.55;;;5.30;;
42834;SDS011;29335;50.526;30.458;2022-12-01T01:13:12;9.48;;;4.90;;
42834;SDS011;29335;50.526;30.458;2022-12-01T01:15:38;9.30;;;5.38;;
42834;SDS011;29335;50.526;30.458;2022-12-01T01:18:04;10.80;;;4.88;;
42834;SDS011;29335;50.526;30.458;2022-12-01T01:20:30;11.50;;;6.28;;
42834;SDS011;29335;50.526;30.458;2022-12-01T01:22:57;7.93;;;5.28;;
42834;SDS011;29335;50.526;30.458;2022-12-01T01:25:23;9.38;;;5.57;;
42834;SDS011;29335;50.526;30.458;2022-12-01T01:27:49;11.27;;;5.47;;
42834;SDS011;29335;50.526;30.458;2022-12-01T01:30:16;9.25;;;5.65;;
42834;SDS011;29335;50.526;30.458;2022-12-01T01:32:42;10.35;;;5.30;;
42834;SDS011;29335;50.526;30.458;2022-12-01T01:35:07;8.32;;;5.60;;
42834;SDS011;29335;50.526;30.458;2022-12-01T01:37:33;10.18;;;5.38;;
42834;SDS011;29335;50.526;30.458;2022-12-01T01:39:59;11.68;;;5.47;;
42834;SDS011;29335;50.526;30.458;2022-12-01T01:42:25;8.85;;;5.45;;
42834;SDS011;29335;50.526;30.458;2022-12-01T01:44:51;10.05;;;5.35;;
42834;SDS011;29335;50.526;30.458;2022-12-01T01:47:23;9.80;;;5.18;;
42834;SDS011;29335;50.526;30.458;2022-12-01T01:49:59;10.13;;;5.30;;
42834;SDS011;29335;50.526;30.458;2022-12-01T01:52:30;10.35;;;5.63;;
42834;SDS011;29335;50.526;30.458;2022-12-01T01:55:16;7.95;;;5.30;;
42834;SDS011;29335;50.526;30.458;2022-12-01T01:57:43;8.43;;;5.50;;
42834;SDS011;29335;50.526;30.458;2022-12-01T02:00:12;8.68;;;5.05;;
42834;SDS011;29335;50.526;30.458;2022-12-01T02:02:41;15.35;;;5.60;;
42834;SDS011;29335;50.526;30.458;2022-12-01T02:05:08;10.63;;;5.72;;
42834;SDS011;29335;50.526;30.458;2022-12-01T02:07:37;8.77;;;5.20;;
42834;SDS011;29335;50.526;30.458;2022-12-01T02:10:04;7.78;;;4.93;;
42834;SDS011;29335;50.526;30.458;2022-12-01T02:15:30;9.63;;;5.70;;
42834;SDS011;29335;50.526;30.458;2022-12-01T02:23:46;11.35;;;5.57;;
42834;SDS011;29335;50.526;30.458;2022-12-01T02:26:54;6.80;;;4.85;;
42834;SDS011;29335;50.526;30.458;2022-12-01T02:32:13;10.93;;;6.33;;
42834;SDS011;29335;50.526;30.458;2022-12-01T02:34:58;7.65;;;4.75;;
42834;SDS011;29335;50.526;30.458;2022-12-01T02:37:54;10.27;;;5.93;;
42834;SDS011;29335;50.526;30.458;2022-12-01T02:40:42;11.77;;;5.47;;
42834;SDS011;29335;50.526;30.458;2022-12-01T02:43:26;9.07;;;5.65;;
42834;SDS011;29335;50.526;30.458;2022-12-01T02:48:42;17.00;;;11.60;;
42834;SDS011;29335;50.526;30.458;2022-12-01T02:51:13;30.63;;;21.80;;
42834;SDS011;29335;50.526;30.458;2022-12-01T02:53:43;48.20;;;35.10;;
42834;SDS011;29335;50.526;30.458;2022-12-01T02:56:10;28.60;;;20.70;;
42834;SDS011;29335;50.526;30.458;2022-12-01T02:58:37;19.93;;;14.67;;
42834;SDS011;29335;50.526;30.458;2022-12-01T03:03:46;11.67;;;8.47;;
42834;SDS011;29335;50.526;30.458;2022-12-01T03:06:40;14.10;;;10.00;;
42834;SDS011;29335;50.526;30.458;2022-12-01T03:09:22;11.57;;;7.55;;
42834;SDS011;29335;50.526;30.458;2022-12-01T03:17:35;11.73;;;5.63;;
42834;SDS011;29335;50.526;30.458;2022-12-01T03:20:09;9.83;;;5.57;;
42834;SDS011;29335;50.526;30.458;2022-12-01T03:22:44;10.03;;;5.13;;
42834;SDS011;29335;50.526;30.458;2022-12-01T03:25:15;10.73;;;5.73;;
42834;SDS011;29335;50.526;30.458;2022-12-01T03:27:42;9.80;;;5.97;;
42834;SDS011;29335;50.526;30.458;2022-12-01T03:30:11;12.23;;;5.60;;
42834;SDS011;29335;50.526;30.458;2022-12-01T03:33:12;9.27;;;5.20;;
42834;SDS011;29335;50.526;30.458;2022-12-01T03:35:38;12.00;;;5.37;;
42834;SDS011;29335;50.526;30.458;2022-12-01T03:38:18;9.97;;;5.57;;
42834;SDS011;29335;50.526;30.458;2022-12-01T03:40:48;9.63;;;5.87;;
42834;SDS011;29335;50.526;30.458;2022-12-01T03:43:18;9.37;;;5.63;;
42834;SDS011;29335;50.526;30.458;2022-12-01T03:48:37;12.40;;;5.60;;
42834;SDS011;29335;50.526;30.458;2022-12-01T03:51:11;10.43;;;5.90;;
42834;SDS011;29335;50.526;30.458;2022-12-01T03:56:29;10.83;;;6.10;;
42834;SDS011;29335;50.526;30.458;2022-12-01T03:59:00;9.15;;;7.40;;
42834;SDS011;29335;50.526;30.458;2022-12-01T04:01:29;13.13;;;9.43;;
42834;SDS011;29335;50.526;30.458;2022-12-01T04:04:02;17.70;;;12.30;;
42834;SDS011;29335;50.526;30.458;2022-12-01T04:06:32;14.13;;;7.83;;
42834;SDS011;29335;50.526;30.458;2022-12-01T04:08:58;12.27;;;7.63;;
42834;SDS011;29335;50.526;30.458;2022-12-01T04:11:24;13.00;;;6.67;;
42834;SDS011;29335;50.526;30.458;2022-12-01T04:14:08;12.80;;;6.73;;
42834;SDS011;29335;50.526;30.458;2022-12-01T04:16:34;11.53;;;7.60;;
42834;SDS011;29335;50.526;30.458;2022-12-01T04:19:00;11.97;;;6.27;;
42834;SDS011;29335;50.526;30.458;2022-12-01T04:21:25;13.17;;;6.30;;
42834;SDS011;29335;50.526;30.458;2022-12-01T04:23:51;10.27;;;6.33;;
42834;SDS011;29335;50.526;30.458;2022-12-01T04:26:27;9.83;;;6.17;;
42834;SDS011;29335;50.526;30.458;2022-12-01T04:29:04;12.33;;;6.30;;
42834;SDS011;29335;50.526;30.458;2022-12-01T04:31:31;15.82;;;9.15;;
42834;SDS011;29335;50.526;30.458;2022-12-01T04:33:58;10.90;;;6.00;;
42834;SDS011;29335;50.526;30.458;2022-12-01T04:36:24;12.13;;;6.60;;
42834;SDS011;29335;50.526;30.458;2022-12-01T04:38:50;10.73;;;5.83;;
42834;SDS011;29335;50.526;30.458;2022-12-01T04:41:16;11.20;;;6.47;;
42834;SDS011;29335;50.526;30.458;2022-12-01T04:43:42;12.83;;;6.27;;
42834;SDS011;29335;50.526;30.458;2022-12-01T04:46:08;14.60;;;6.80;;
42834;SDS011;29335;50.526;30.458;2022-12-01T04:48:34;10.57;;;6.10;;
42834;SDS011;29335;50.526;30.458;2022-12-01T04:51:01;14.60;;;7.60;;
42834;SDS011;29335;50.526;30.458;2022-12-01T04:53:27;11.13;;;6.47;;
42834;SDS011;29335;50.526;30.458;2022-12-01T04:55:53;13.90;;;6.90;;
42834;SDS011;29335;50.526;30.458;2022-12-01T04:58:18;12.50;;;5.87;;
42834;SDS011;29335;50.526;30.458;2022-12-01T05:00:44;13.60;;;6.47;;
42834;SDS011;29335;50.526;30.458;2022-12-01T05:03:10;15.80;;;7.20;;
42834;SDS011;29335;50.526;30.458;2022-12-01T05:05:35;11.60;;;6.70;;
42834;SDS011;29335;50.526;30.458;2022-12-01T05:08:01;10.73;;;5.60;;
42834;SDS011;29335;50.526;30.458;2022-12-01T05:10:27;12.97;;;6.37;;
42834;SDS011;29335;50.526;30.458;2022-12-01T05:12:52;34.93;;;22.53;;
42834;SDS011;29335;50.526;30.458;2022-12-01T05:15:19;34.43;;;21.27;;
42834;SDS011;29335;50.526;30.458;2022-12-01T05:17:45;36.77;;;22.47;;
42834;SDS011;29335;50.526;30.458;2022-12-01T05:20:13;46.50;;;26.50;;
42834;SDS011;29335;50.526;30.458;2022-12-01T05:23:02;22.53;;;14.03;;
42834;SDS011;29335;50.526;30.458;2022-12-01T05:25:27;31.33;;;18.60;;
42834;SDS011;29335;50.526;30.458;2022-12-01T05:27:53;32.67;;;20.03;;
42834;SDS011;29335;50.526;30.458;2022-12-01T05:30:18;16.53;;;11.03;;
42834;SDS011;29335;50.526;30.458;2022-12-01T05:32:44;16.10;;;8.60;;
42834;SDS011;29335;50.526;30.458;2022-12-01T05:35:10;13.53;;;6.60;;
42834;SDS011;29335;50.526;30.458;2022-12-01T05:37:36;15.20;;;8.47;;
42834;SDS011;29335;50.526;30.458;2022-12-01T05:40:02;13.50;;;8.47;;
42834;SDS011;29335;50.526;30.458;2022-12-01T05:42:28;25.00;;;16.67;;
42834;SDS011;29335;50.526;30.458;2022-12-01T05:44:54;15.33;;;10.60;;
42834;SDS011;29335;50.526;30.458;2022-12-01T05:47:19;16.83;;;9.90;;
42834;SDS011;29335;50.526;30.458;2022-12-01T05:49:45;13.90;;;9.50;;
42834;SDS011;29335;50.526;30.458;2022-12-01T05:52:11;11.40;;;8.87;;
42834;SDS011;29335;50.526;30.458;2022-12-01T05:54:36;18.13;;;13.50;;
42834;SDS011;29335;50.526;30.458;2022-12-01T05:57:02;16.57;;;11.53;;
42834;SDS011;29335;50.526;30.458;2022-12-01T05:59:28;11.50;;;9.10;;
42834;SDS011;29335;50.526;30.458;2022-12-01T06:01:53;15.33;;;10.63;;
42834;SDS011;29335;50.526;30.458;2022-12-01T06:04:19;15.90;;;12.57;;
42834;SDS011;29335;50.526;30.458;2022-12-01T06:06:45;20.03;;;15.73;;
42834;SDS011;29335;50.526;30.458;2022-12-01T06:09:10;13.33;;;8.67;;
42834;SDS011;29335;50.526;30.458;2022-12-01T06:11:36;14.20;;;6.67;;
42834;SDS011;29335;50.526;30.458;2022-12-01T06:14:02;16.93;;;9.90;;
42834;SDS011;29335;50.526;30.458;2022-12-01T06:16:27;16.20;;;8.97;;
42834;SDS011;29335;50.526;30.458;2022-12-01T06:18:56;11.57;;;6.20;;
42834;SDS011;29335;50.526;30.458;2022-12-01T06:21:22;12.83;;;7.53;;
42834;SDS011;29335;50.526;30.458;2022-12-01T06:23:47;12.03;;;6.63;;
42834;SDS011;29335;50.526;30.458;2022-12-01T06:26:13;13.57;;;6.93;;
42834;SDS011;29335;50.526;30.458;2022-12-01T06:28:45;11.43;;;6.85;;
42834;SDS011;29335;50.526;30.458;2022-12-01T06:31:11;13.47;;;6.93;;
42834;SDS011;29335;50.526;30.458;2022-12-01T06:33:37;11.17;;;6.20;;
42834;SDS011;29335;50.526;30.458;2022-12-01T06:36:04;11.03;;;7.37;;
42834;SDS011;29335;50.526;30.458;2022-12-01T06:38:38;16.43;;;8.13;;
42834;SDS011;29335;50.526;30.458;2022-12-01T06:41:04;15.83;;;7.93;;
42834;SDS011;29335;50.526;30.458;2022-12-01T06:43:37;14.63;;;7.80;;
42834;SDS011;29335;50.526;30.458;2022-12-01T06:46:03;16.63;;;8.20;;
42834;SDS011;29335;50.526;30.458;2022-12-01T06:48:30;16.20;;;9.17;;
42834;SDS011;29335;50.526;30.458;2022-12-01T06:50:58;17.47;;;10.13;;
42834;SDS011;29335;50.526;30.458;2022-12-01T06:53:28;18.07;;;9.93;;
42834;SDS011;29335;50.526;30.458;2022-12-01T06:56:03;19.13;;;10.37;;
42834;SDS011;29335;50.526;30.458;2022-12-01T06:58:49;15.07;;;9.33;;
42834;SDS011;29335;50.526;30.458;2022-12-01T07:01:34;20.40;;;10.87;;
42834;SDS011;29335;50.526;30.458;2022-12-01T07:04:00;16.33;;;10.10;;
42834;SDS011;29335;50.526;30.458;2022-12-01T07:06:28;15.90;;;9.17;;
42834;SDS011;29335;50.526;30.458;2022-12-01T07:08:57;19.37;;;9.87;;
42834;SDS011;29335;50.526;30.458;2022-12-01T07:11:23;17.37;;;9.13;;
42834;SDS011;29335;50.526;30.458;2022-12-01T07:13:56;13.93;;;8.17;;
42834;SDS011;29335;50.526;30.458;2022-12-01T07:16:22;14.40;;;8.50;;
42834;SDS011;29335;50.526;30.458;2022-12-01T07:18:53;11.73;;;7.60;;
42834;SDS011;29335;50.526;30.458;2022-12-01T07:21:19;11.33;;;7.50;;
42834;SDS011;29335;50.526;30.458;2022-12-01T07:23:49;11.20;;;7.70;;
42834;SDS011;29335;50.526;30.458;2022-12-01T07:26:55;11.73;;;7.20;;
42834;SDS011;29335;50.526;30.458;2022-12-01T07:29:21;13.10;;;6.83;;
42834;SDS011;29335;50.526;30.458;2022-12-01T07:31:46;16.70;;;7.23;;
42834;SDS011;29335;50.526;30.458;2022-12-01T07:34:12;14.40;;;6.90;;
42834;SDS011;29335;50.526;30.458;2022-12-01T07:36:38;11.80;;;7.00;;
42834;SDS011;29335;50.526;30.458;2022-12-01T07:39:04;13.70;;;6.97;;
42834;SDS011;29335;50.526;30.458;2022-12-01T07:41:31;11.43;;;7.47;;
42834;SDS011;29335;50.526;30.458;2022-12-01T07:43:57;12.57;;;7.28;;
42834;SDS011;29335;50.526;30.458;2022-12-01T07:46:24;14.07;;;6.90;;
42834;SDS011;29335;50.526;30.458;2022-12-01T07:48:51;11.47;;;7.10;;
42834;SDS011;29335;50.526;30.458;2022-12-01T07:51:17;13.35;;;8.23;;
42834;SDS011;29335;50.526;30.458;2022-12-01T07:53:44;11.67;;;7.23;;
42834;SDS011;29335;50.526;30.458;2022-12-01T07:56:10;16.40;;;7.60;;
42834;SDS011;29335;50.526;30.458;2022-12-01T07:58:36;14.17;;;7.90;;
42834;SDS011;29335;50.526;30.458;2022-12-01T08:01:09;11.07;;;7.35;;
42834;SDS011;29335;50.526;30.458;2022-12-01T08:03:36;12.32;;;7.30;;
42834;SDS011;29335;50.526;30.458;2022-12-01T08:06:03;11.63;;;7.47;;
42834;SDS011;29335;50.526;30.458;2022-12-01T08:08:30;15.38;;;8.50;;
42834;SDS011;29335;50.526;30.458;2022-12-01T08:11:00;14.48;;;8.63;;
42834;SDS011;29335;50.526;30.458;2022-12-01T08:13:30;13.38;;;8.32;;
42834;SDS011;29335;50.526;30.458;2022-12-01T08:15:56;13.15;;;7.90;;
42834;SDS011;29335;50.526;30.458;2022-12-01T08:18:22;14.80;;;8.05;;
42834;SDS011;29335;50.526;30.458;2022-12-01T08:20:48;12.35;;;7.55;;
42834;SDS011;29335;50.526;30.458;2022-12-01T08:23:14;15.23;;;8.18;;
42834;SDS011;29335;50.526;30.458;2022-12-01T08:25:40;13.43;;;8.07;;
42834;SDS011;29335;50.526;30.458;2022-12-01T08:28:06;13.07;;;8.85;;
42834;SDS011;29335;50.526;30.458;2022-12-01T08:30:32;13.45;;;8.00;;
42834;SDS011;29335;50.526;30.458;2022-12-01T08:32:57;20.25;;;8.80;;
42834;SDS011;29335;50.526;30.458;2022-12-01T08:35:23;13.80;;;7.70;;
42834;SDS011;29335;50.526;30.458;2022-12-01T08:37:52;14.27;;;8.25;;
42834;SDS011;29335;50.526;30.458;2022-12-01T08:40:18;15.38;;;8.18;;
42834;SDS011;29335;50.526;30.458;2022-12-01T08:42:50;12.45;;;9.30;;
42834;SDS011;29335;50.526;30.458;2022-12-01T08:45:17;15.57;;;9.52;;
42834;SDS011;29335;50.526;30.458;2022-12-01T08:47:51;13.60;;;9.27;;
42834;SDS011;29335;50.526;30.458;2022-12-01T08:50:18;16.55;;;8.60;;
42834;SDS011;29335;50.526;30.458;2022-12-01T08:52:43;16.73;;;9.48;;
42834;SDS011;29335;50.526;30.458;2022-12-01T10:26:54;10.77;;;6.35;;
42834;SDS011;29335;50.526;30.458;2022-12-01T10:32:26;9.13;;;6.38;;
42834;SDS011;29335;50.526;30.458;2022-12-01T10:35:03;9.07;;;5.60;;
42834;SDS011;29335;50.526;30.458;2022-12-01T10:37:28;9.20;;;6.10;;
42834;SDS011;29335;50.526;30.458;2022-12-01T10:39:55;11.07;;;5.90;;
42834;SDS011;29335;50.526;30.458;2022-12-01T10:42:28;9.85;;;6.38;;
42834;SDS011;29335;50.526;30.458;2022-12-01T10:45:02;13.10;;;6.80;;
42834;SDS011;29335;50.526;30.458;2022-12-01T10:47:31;14.07;;;7.50;;
42834;SDS011;29335;50.526;30.458;2022-12-01T10:49:57;10.48;;;5.65;;
42834;SDS011;29335;50.526;30.458;2022-12-01T10:52:29;10.45;;;4.90;;
42834;SDS011;29335;50.526;30.458;2022-12-01T10:55:03;9.90;;;5.43;;
42834;SDS011;29335;50.526;30.458;2022-12-01T10:57:47;7.72;;;4.90;;
42834;SDS011;29335;50.526;30.458;2022-12-01T11:00:26;8.57;;;5.40;;
42834;SDS011;29335;50.526;30.458;2022-12-01T11:02:56;7.78;;;5.15;;
42834;SDS011;29335;50.526;30.458;2022-12-01T11:05:25;8.68;;;5.15;;
42834;SDS011;29335;50.526;30.458;2022-12-01T11:07:56;9.95;;;5.40;;
42834;SDS011;29335;50.526;30.458;2022-12-01T11:10:26;9.38;;;4.63;;
42834;SDS011;29335;50.526;30.458;2022-12-01T11:13:00;8.73;;;5.80;;
42834;SDS011;29335;50.526;30.458;2022-12-01T11:15:56;8.10;;;4.85;;
42834;SDS011;29335;50.526;30.458;2022-12-01T11:21:15;5.75;;;4.65;;
42834;SDS011;29335;50.526;30.458;2022-12-01T11:23:51;10.52;;;5.35;;
42834;SDS011;29335;50.526;30.458;2022-12-01T11:26:22;9.68;;;4.88;;
42834;SDS011;29335;50.526;30.458;2022-12-01T11:28:57;14.48;;;6.50;;
42834;SDS011;29335;50.526;30.458;2022-12-01T11:31:38;8.32;;;5.07;;
42834;SDS011;29335;50.526;30.458;2022-12-01T11:34:21;10.43;;;5.38;;
42834;SDS011;29335;50.526;30.458;2022-12-01T11:36:51;8.48;;;4.70;;
42834;SDS011;29335;50.526;30.458;2022-12-01T11:39:38;10.93;;;4.85;;
42834;SDS011;29335;50.526;30.458;2022-12-01T11:44:40;7.70;;;4.82;;
42834;SDS011;29335;50.526;30.458;2022-12-01T11:47:14;7.65;;;4.80;;
42834;SDS011;29335;50.526;30.458;2022-12-01T11:49:43;7.00;;;4.30;;
42834;SDS011;29335;50.526;30.458;2022-12-01T11:52:19;10.07;;;5.57;;
42834;SDS011;29335;50.526;30.458;2022-12-01T11:57:25;8.43;;;5.13;;
42834;SDS011;29335;50.526;30.458;2022-12-01T11:59:53;11.45;;;5.38;;
42834;SDS011;29335;50.526;30.458;2022-12-01T12:10:40;9.85;;;5.30;;
42834;SDS011;29335;50.526;30.458;2022-12-01T12:13:28;12.85;;;7.95;;
42834;SDS011;29335;50.526;30.458;2022-12-01T12:25:01;14.93;;;5.70;;
42834;SDS011;29335;50.526;30.458;2022-12-01T12:30:19;19.73;;;8.68;;
42834;SDS011;29335;50.526;30.458;2022-12-01T12:32:59;8.25;;;5.82;;
42834;SDS011;29335;50.526;30.458;2022-12-01T12:46:40;11.07;;;5.78;;
42834;SDS011;29335;50.526;30.458;2022-12-01T12:49:35;9.77;;;5.88;;
42834;SDS011;29335;50.526;30.458;2022-12-01T12:52:29;8.45;;;5.53;;
42834;SDS011;29335;50.526;30.458;2022-12-01T12:55:17;10.68;;;6.20;;
42834;SDS011;29335;50.526;30.458;2022-12-01T12:57:54;10.77;;;5.82;;
42834;SDS011;29335;50.526;30.458;2022-12-01T13:00:28;12.57;;;7.70;;
42834;SDS011;29335;50.526;30.458;2022-12-01T13:06:05;11.38;;;6.13;;
42834;SDS011;29335;50.526;30.458;2022-12-01T13:08:43;10.48;;;5.40;;
42834;SDS011;29335;50.526;30.458;2022-12-01T13:16:42;12.70;;;7.03;;
42834;SDS011;29335;50.526;30.458;2022-12-01T13:19:14;8.73;;;4.72;;
42834;SDS011;29335;50.526;30.458;2022-12-01T13:21:45;8.13;;;4.50;;
42834;SDS011;29335;50.526;30.458;2022-12-01T13:24:13;6.80;;;4.53;;
42834;SDS011;29335;50.526;30.458;2022-12-01T13:26:42;7.22;;;4.30;;
42834;SDS011;29335;50.526;30.458;2022-12-01T13:29:13;9.00;;;4.88;;
42834;SDS011;29335;50.526;30.458;2022-12-01T13:31:43;9.68;;;5.45;;
42834;SDS011;29335;50.526;30.458;2022-12-01T13:34:25;10.35;;;5.72;;
42834;SDS011;29335;50.526;30.458;2022-12-01T13:37:05;10.23;;;5.95;;
42834;SDS011;29335;50.526;30.458;2022-12-01T13:39:33;12.18;;;5.30;;
42834;SDS011;29335;50.526;30.458;2022-12-01T13:42:05;7.30;;;4.60;;
42834;SDS011;29335;50.526;30.458;2022-12-01T13:49:44;9.38;;;4.38;;
42834;SDS011;29335;50.526;30.458;2022-12-01T13:52:32;9.82;;;4.82;;
42834;SDS011;29335;50.526;30.458;2022-12-01T13:57:40;8.35;;;5.05;;
42834;SDS011;29335;50.526;30.458;2022-12-01T14:00:19;9.90;;;5.28;;
42834;SDS011;29335;50.526;30.458;2022-12-01T14:08:14;13.95;;;8.38;;
42834;SDS011;29335;50.526;30.458;2022-12-01T14:10:59;9.05;;;5.47;;
42834;SDS011;29335;50.526;30.458;2022-12-01T14:13:30;6.43;;;4.32;;
42834;SDS011;29335;50.526;30.458;2022-12-01T14:16:06;9.95;;;5.18;;
42834;SDS011;29335;50.526;30.458;2022-12-01T14:18:38;11.50;;;5.53;;
42834;SDS011;29335;50.526;30.458;2022-12-01T14:21:08;15.68;;;8.68;;
42834;SDS011;29335;50.526;30.458;2022-12-01T14:23:36;12.98;;;7.75;;
42834;SDS011;29335;50.526;30.458;2022-12-01T14:29:08;9.43;;;5.93;;
42834;SDS011;29335;50.526;30.458;2022-12-01T14:34:16;17.15;;;8.82;;
42834;SDS011;29335;50.526;30.458;2022-12-01T14:36:50;11.45;;;6.25;;
42834;SDS011;29335;50.526;30.458;2022-12-01T14:39:23;11.20;;;6.65;;
42834;SDS011;29335;50.526;30.458;2022-12-01T14:42:14;16.60;;;8.82;;
42834;SDS011;29335;50.526;30.458;2022-12-01T14:45:19;14.43;;;7.60;;
42834;SDS011;29335;50.526;30.458;2022-12-01T14:48:23;9.98;;;5.93;;
42834;SDS011;29335;50.526;30.458;2022-12-01T14:50:48;11.23;;;5.70;;
42834;SDS011;29335;50.526;30.458;2022-12-01T14:53:18;10.30;;;5.72;;
42834;SDS011;29335;50.526;30.458;2022-12-01T14:55:58;8.50;;;5.32;;
42834;SDS011;29335;50.526;30.458;2022-12-01T14:58:32;12.40;;;5.82;;
42834;SDS011;29335;50.526;30.458;2022-12-01T15:01:02;9.88;;;5.95;;
42834;SDS011;29335;50.526;30.458;2022-12-01T15:06:15;13.35;;;5.80;;
42834;SDS011;29335;50.526;30.458;2022-12-01T15:08:45;10.55;;;5.45;;
42834;SDS011;29335;50.526;30.458;2022-12-01T15:11:27;8.57;;;5.50;;
42834;SDS011;29335;50.526;30.458;2022-12-01T15:13:54;11.48;;;6.10;;
42834;SDS011;29335;50.526;30.458;2022-12-01T15:16:22;11.38;;;5.60;;
42834;SDS011;29335;50.526;30.458;2022-12-01T15:18:50;10.35;;;6.10;;
42834;SDS011;29335;50.526;30.458;2022-12-01T15:21:22;11.32;;;5.80;;
42834;SDS011;29335;50.526;30.458;2022-12-01T15:23:53;11.43;;;6.40;;
42834;SDS011;29335;50.526;30.458;2022-12-01T15:26:27;9.43;;;5.75;;
42834;SDS011;29335;50.526;30.458;2022-12-01T15:29:02;11.50;;;6.00;;
42834;SDS011;29335;50.526;30.458;2022-12-01T15:31:30;9.52;;;5.68;;
42834;SDS011;29335;50.526;30.458;2022-12-01T15:33:56;14.07;;;6.25;;
42834;SDS011;29335;50.526;30.458;2022-12-01T15:36:22;12.27;;;6.43;;
42834;SDS011;29335;50.526;30.458;2022-12-01T15:38:48;9.98;;;6.45;;
42834;SDS011;29335;50.526;30.458;2022-12-01T15:41:18;10.35;;;6.40;;
42834;SDS011;29335;50.526;30.458;2022-12-01T15:43:53;13.45;;;7.07;;
42834;SDS011;29335;50.526;30.458;2022-12-01T15:46:25;13.13;;;6.63;;
42834;SDS011;29335;50.526;30.458;2022-12-01T15:49:13;12.68;;;6.78;;
42834;SDS011;29335;50.526;30.458;2022-12-01T15:51:40;13.27;;;7.07;;
42834;SDS011;29335;50.526;30.458;2022-12-01T15:54:22;11.85;;;6.75;;
42834;SDS011;29335;50.526;30.458;2022-12-01T15:57:45;15.30;;;7.45;;
42834;SDS011;29335;50.526;30.458;2022-12-01T16:00:21;14.32;;;7.63;;
42834;SDS011;29335;50.526;30.458;2022-12-01T16:02:52;13.52;;;7.43;;
42834;SDS011;29335;50.526;30.458;2022-12-01T16:16:27;15.60;;;8.07;;
42834;SDS011;29335;50.526;30.458;2022-12-01T16:19:32;14.80;;;9.23;;
42834;SDS011;29335;50.526;30.458;2022-12-01T16:24:54;16.00;;;9.00;;
42834;SDS011;29335;50.526;30.458;2022-12-01T16:28:14;16.10;;;9.25;;
42834;SDS011;29335;50.526;30.458;2022-12-01T16:34:20;15.35;;;7.43;;
42834;SDS011;29335;50.526;30.458;2022-12-01T16:37:21;9.13;;;6.05;;
42834;SDS011;29335;50.526;30.458;2022-12-01T16:58:42;14.13;;;6.80;;
42834;SDS011;29335;50.526;30.458;2022-12-01T17:08:35;12.38;;;7.80;;
42834;SDS011;29335;50.526;30.458;2022-12-01T17:11:12;13.60;;;7.47;;
42834;SDS011;29335;50.526;30.458;2022-12-01T17:21:21;15.50;;;8.25;;
42834;SDS011;29335;50.526;30.458;2022-12-01T17:31:41;16.30;;;10.52;;
42834;SDS011;29335;50.526;30.458;2022-12-01T17:50:12;15.10;;;8.88;;
42834;SDS011;29335;50.526;30.458;2022-12-01T17:53:09;17.98;;;9.18;;
42834;SDS011;29335;50.526;30.458;2022-12-01T17:58:43;15.38;;;8.40;;
42834;SDS011;29335;50.526;30.458;2022-12-01T18:15:16;15.35;;;7.82;;
42834;SDS011;29335;50.526;30.458;2022-12-01T18:18:32;15.45;;;7.90;;
42834;SDS011;29335;50.526;30.458;2022-12-01T18:35:59;15.95;;;8.95;;
42834;SDS011;29335;50.526;30.458;2022-12-01T18:46:09;16.27;;;9.10;;
42834;SDS011;29335;50.526;30.458;2022-12-01T18:48:54;15.35;;;9.25;;
42834;SDS011;29335;50.526;30.458;2022-12-01T18:51:53;14.25;;;9.63;;
42834;SDS011;29335;50.526;30.458;2022-12-01T18:54:27;18.00;;;9.27;;
42834;SDS011;29335;50.526;30.458;2022-12-01T18:57:27;16.85;;;9.48;;
42834;SDS011;29335;50.526;30.458;2022-12-01T19:03:58;15.98;;;9.90;;
42834;SDS011;29335;50.526;30.458;2022-12-01T19:07:41;14.48;;;8.98;;
42834;SDS011;29335;50.526;30.458;2022-12-01T19:10:06;17.42;;;8.68;;
42834;SDS011;29335;50.526;30.458;2022-12-01T19:12:35;13.95;;;8.52;;
42834;SDS011;29335;50.526;30.458;2022-12-01T19:15:00;12.48;;;8.55;;
42834;SDS011;29335;50.526;30.458;2022-12-01T19:17:26;17.48;;;10.00;;
42834;SDS011;29335;50.526;30.458;2022-12-01T19:19:54;15.27;;;9.40;;
42834;SDS011;29335;50.526;30.458;2022-12-01T19:22:19;18.73;;;9.75;;
42834;SDS011;29335;50.526;30.458;2022-12-01T19:24:45;15.25;;;9.63;;
42834;SDS011;29335;50.526;30.458;2022-12-01T19:27:11;14.55;;;9.63;;
42834;SDS011;29335;50.526;30.458;2022-12-01T19:29:39;18.05;;;10.32;;
42834;SDS011;29335;50.526;30.458;2022-12-01T19:32:05;15.50;;;9.88;;
42834;SDS011;29335;50.526;30.458;2022-12-01T19:34:31;15.57;;;9.65;;
42834;SDS011;29335;50.526;30.458;2022-12-01T19:36:59;14.00;;;9.43;;
42834;SDS011;29335;50.526;30.458;2022-12-01T19:39:25;16.35;;;9.88;;
42834;SDS011;29335;50.526;30.458;2022-12-01T19:41:50;15.82;;;10.40;;
42834;SDS011;29335;50.526;30.458;2022-12-01T19:44:16;15.68;;;10.20;;
42834;SDS011;29335;50.526;30.458;2022-12-01T19:46:43;13.77;;;8.75;;
42834;SDS011;29335;50.526;30.458;2022-12-01T19:49:09;13.90;;;9.48;;
42834;SDS011;29335;50.526;30.458;2022-12-01T19:51:36;18.83;;;9.88;;
42834;SDS011;29335;50.526;30.458;2022-12-01T19:54:03;15.32;;;9.75;;
42834;SDS011;29335;50.526;30.458;2022-12-01T19:56:35;17.77;;;9.27;;
42834;SDS011;29335;50.526;30.458;2022-12-01T19:59:01;19.23;;;10.05;;
42834;SDS011;29335;50.526;30.458;2022-12-01T20:01:29;15.10;;;8.88;;